sensor_id;sensor_type;location;lat;lon;timestamp;P1;durP1;ratioP1;P2;durP2;ratioP2
5125;SDS011;63008;53.112;8.896;2024-03-22T00:00:03;31.60;;;14.80;;
5125;SDS011;63008;53.112;8.896;2024-03-22T00:02:05;26.83;;;13.87;;
5125;SDS011;63008;53.112;8.896;2024-03-22T00:04:06;26.60;;;14.20;;
5125;SDS011;63008;53.112;8.896;2024-03-22T00:06:07;21.57;;;15.30;;
5125;SDS011;63008;53.112;8.896;2024-03-22T00:08:08;19.23;;;15.40;;
5125;SDS011;63008;53.112;8.896;2024-03-22T00:10:10;21.20;;;15.87;;
5125;SDS011;63008;53.112;8.896;2024-03-22T00:12:11;19.90;;;14.77;;
5125;SDS011;63008;53.112;8.896;2024-03-22T00:14:12;26.27;;;17.60;;
5125;SDS011;63008;53.112;8.896;2024-03-22T00:16:12;22.77;;;16.20;;
5125;SDS011;63008;53.112;8.896;2024-03-22T00:18:13;22.60;;;16.33;;
5125;SDS011;63008;53.112;8.896;2024-03-22T00:20:14;26.60;;;17.30;;
5125;SDS011;63008;53.112;8.896;2024-03-22T00:22:15;20.73;;;17.43;;
5125;SDS011;63008;53.112;8.896;2024-03-22T00:24:16;28.17;;;17.93;;
5125;SDS011;63008;53.112;8.896;2024-03-22T00:26:17;26.20;;;18.00;;
5125;SDS011;63008;53.112;8.896;2024-03-22T00:28:18;25.10;;;18.63;;
5125;SDS011;63008;53.112;8.896;2024-03-22T00:30:19;25.40;;;19.70;;
5125;SDS011;63008;53.112;8.896;2024-03-22T00:32:20;24.03;;;19.27;;
5125;SDS011;63008;53.112;8.896;2024-03-22T00:34:21;27.07;;;19.00;;
5125;SDS011;63008;53.112;8.896;2024-03-22T00:36:23;25.07;;;18.27;;
5125;SDS011;63008;53.112;8.896;2024-03-22T00:38:24;29.80;;;19.97;;
5125;SDS011;63008;53.112;8.896;2024-03-22T00:40:25;26.77;;;20.27;;
5125;SDS011;63008;53.112;8.896;2024-03-22T00:42:26;26.63;;;20.50;;
5125;SDS011;63008;53.112;8.896;2024-03-22T00:44:27;30.57;;;20.80;;
5125;SDS011;63008;53.112;8.896;2024-03-22T00:46:28;30.10;;;20.97;;
5125;SDS011;63008;53.112;8.896;2024-03-22T00:48:29;27.67;;;19.37;;
5125;SDS011;63008;53.112;8.896;2024-03-22T00:50:30;29.87;;;20.63;;
5125;SDS011;63008;53.112;8.896;2024-03-22T00:52:31;30.83;;;22.40;;
5125;SDS011;63008;53.112;8.896;2024-03-22T00:54:32;32.80;;;22.17;;
5125;SDS011;63008;53.112;8.896;2024-03-22T00:56:33;31.73;;;22.63;;
5125;SDS011;63008;53.112;8.896;2024-03-22T00:58:34;30.53;;;22.03;;
5125;SDS011;63008;53.112;8.896;2024-03-22T01:00:35;30.60;;;23.07;;
5125;SDS011;63008;53.112;8.896;2024-03-22T01:02:37;30.97;;;22.97;;
5125;SDS011;63008;53.112;8.896;2024-03-22T01:04:38;32.70;;;23.07;;
5125;SDS011;63008;53.112;8.896;2024-03-22T01:06:39;36.63;;;23.87;;
5125;SDS011;63008;53.112;8.896;2024-03-22T01:08:40;41.90;;;25.17;;
5125;SDS011;63008;53.112;8.896;2024-03-22T01:10:41;35.37;;;24.63;;
5125;SDS011;63008;53.112;8.896;2024-03-22T01:12:42;31.13;;;23.30;;
5125;SDS011;63008;53.112;8.896;2024-03-22T01:14:43;30.90;;;23.27;;
5125;SDS011;63008;53.112;8.896;2024-03-22T01:16:44;31.57;;;24.63;;
5125;SDS011;63008;53.112;8.896;2024-03-22T01:18:45;35.83;;;25.23;;
5125;SDS011;63008;53.112;8.896;2024-03-22T01:20:46;34.50;;;24.60;;
5125;SDS011;63008;53.112;8.896;2024-03-22T01:22:47;39.03;;;25.73;;
5125;SDS011;63008;53.112;8.896;2024-03-22T01:24:48;35.93;;;26.20;;
5125;SDS011;63008;53.112;8.896;2024-03-22T01:26:49;36.73;;;27.47;;
5125;SDS011;63008;53.112;8.896;2024-03-22T01:28:50;38.70;;;25.83;;
5125;SDS011;63008;53.112;8.896;2024-03-22T01:30:51;35.93;;;27.80;;
5125;SDS011;63008;53.112;8.896;2024-03-22T01:32:52;39.80;;;28.17;;
5125;SDS011;63008;53.112;8.896;2024-03-22T01:34:53;36.47;;;25.17;;
5125;SDS011;63008;53.112;8.896;2024-03-22T01:36:54;38.60;;;26.87;;
5125;SDS011;63008;53.112;8.896;2024-03-22T01:38:55;36.17;;;26.70;;
5125;SDS011;63008;53.112;8.896;2024-03-22T01:40:56;42.80;;;27.70;;
5125;SDS011;63008;53.112;8.896;2024-03-22T01:42:57;43.47;;;29.10;;
5125;SDS011;63008;53.112;8.896;2024-03-22T01:45:00;41.17;;;29.00;;
5125;SDS011;63008;53.112;8.896;2024-03-22T01:47:01;39.50;;;28.47;;
5125;SDS011;63008;53.112;8.896;2024-03-22T01:49:03;40.03;;;29.10;;
5125;SDS011;63008;53.112;8.896;2024-03-22T01:51:04;43.37;;;30.70;;
5125;SDS011;63008;53.112;8.896;2024-03-22T01:53:06;41.60;;;29.50;;
5125;SDS011;63008;53.112;8.896;2024-03-22T01:55:07;42.43;;;28.60;;
5125;SDS011;63008;53.112;8.896;2024-03-22T01:57:08;45.07;;;31.70;;
5125;SDS011;63008;53.112;8.896;2024-03-22T01:59:09;41.80;;;30.27;;
5125;SDS011;63008;53.112;8.896;2024-03-22T02:01:10;41.07;;;28.83;;
5125;SDS011;63008;53.112;8.896;2024-03-22T02:03:11;42.20;;;30.93;;
5125;SDS011;63008;53.112;8.896;2024-03-22T02:07:15;45.70;;;30.50;;
5125;SDS011;63008;53.112;8.896;2024-03-22T02:09:17;42.73;;;30.17;;
5125;SDS011;63008;53.112;8.896;2024-03-22T02:11:18;44.70;;;31.27;;
5125;SDS011;63008;53.112;8.896;2024-03-22T02:13:19;44.23;;;31.50;;
5125;SDS011;63008;53.112;8.896;2024-03-22T02:15:20;45.97;;;32.30;;
5125;SDS011;63008;53.112;8.896;2024-03-22T02:17:21;46.60;;;32.40;;
5125;SDS011;63008;53.112;8.896;2024-03-22T02:19:22;44.00;;;30.43;;
5125;SDS011;63008;53.112;8.896;2024-03-22T02:21:23;53.60;;;31.90;;
5125;SDS011;63008;53.112;8.896;2024-03-22T02:23:31;49.07;;;32.33;;
5125;SDS011;63008;53.112;8.896;2024-03-22T02:25:35;48.80;;;32.47;;
5125;SDS011;63008;53.112;8.896;2024-03-22T02:27:37;46.57;;;31.70;;
5125;SDS011;63008;53.112;8.896;2024-03-22T02:29:39;47.83;;;32.10;;
5125;SDS011;63008;53.112;8.896;2024-03-22T02:31:40;49.87;;;33.10;;
5125;SDS011;63008;53.112;8.896;2024-03-22T02:33:41;44.67;;;32.37;;
5125;SDS011;63008;53.112;8.896;2024-03-22T02:35:42;49.70;;;33.50;;
5125;SDS011;63008;53.112;8.896;2024-03-22T02:37:43;48.60;;;32.03;;
5125;SDS011;63008;53.112;8.896;2024-03-22T02:39:44;51.50;;;32.90;;
5125;SDS011;63008;53.112;8.896;2024-03-22T02:41:45;49.70;;;32.47;;
5125;SDS011;63008;53.112;8.896;2024-03-22T02:43:46;51.07;;;34.00;;
5125;SDS011;63008;53.112;8.896;2024-03-22T02:45:47;49.90;;;32.27;;
5125;SDS011;63008;53.112;8.896;2024-03-22T02:47:48;54.63;;;33.97;;
5125;SDS011;63008;53.112;8.896;2024-03-22T02:49:49;48.80;;;33.90;;
5125;SDS011;63008;53.112;8.896;2024-03-22T02:51:50;53.83;;;35.17;;
5125;SDS011;63008;53.112;8.896;2024-03-22T02:53:51;48.90;;;34.27;;
5125;SDS011;63008;53.112;8.896;2024-03-22T02:55:52;51.23;;;33.77;;
5125;SDS011;63008;53.112;8.896;2024-03-22T02:57:53;52.70;;;34.23;;
5125;SDS011;63008;53.112;8.896;2024-03-22T02:59:56;56.10;;;32.73;;
5125;SDS011;63008;53.112;8.896;2024-03-22T03:01:57;52.60;;;34.93;;
5125;SDS011;63008;53.112;8.896;2024-03-22T03:03:58;50.43;;;35.40;;
5125;SDS011;63008;53.112;8.896;2024-03-22T03:05:59;54.07;;;36.37;;
5125;SDS011;63008;53.112;8.896;2024-03-22T03:08:00;58.20;;;35.17;;
5125;SDS011;63008;53.112;8.896;2024-03-22T03:10:01;54.20;;;35.43;;
5125;SDS011;63008;53.112;8.896;2024-03-22T03:12:03;57.67;;;36.27;;
5125;SDS011;63008;53.112;8.896;2024-03-22T03:14:04;52.47;;;34.40;;
5125;SDS011;63008;53.112;8.896;2024-03-22T03:16:05;56.47;;;37.10;;
5125;SDS011;63008;53.112;8.896;2024-03-22T03:18:06;59.77;;;36.63;;
5125;SDS011;63008;53.112;8.896;2024-03-22T03:20:07;53.27;;;34.93;;
5125;SDS011;63008;53.112;8.896;2024-03-22T03:22:10;55.97;;;36.63;;
5125;SDS011;63008;53.112;8.896;2024-03-22T03:24:11;50.13;;;34.17;;
5125;SDS011;63008;53.112;8.896;2024-03-22T03:26:12;58.43;;;35.47;;
5125;SDS011;63008;53.112;8.896;2024-03-22T03:28:13;54.80;;;35.50;;
5125;SDS011;63008;53.112;8.896;2024-03-22T03:30:14;64.67;;;35.60;;
5125;SDS011;63008;53.112;8.896;2024-03-22T03:32:15;55.70;;;37.60;;
5125;SDS011;63008;53.112;8.896;2024-03-22T03:34:16;51.07;;;32.17;;
5125;SDS011;63008;53.112;8.896;2024-03-22T03:36:17;60.80;;;37.27;;
5125;SDS011;63008;53.112;8.896;2024-03-22T03:38:18;54.47;;;35.93;;
5125;SDS011;63008;53.112;8.896;2024-03-22T03:40:19;55.00;;;36.53;;
5125;SDS011;63008;53.112;8.896;2024-03-22T03:42:20;62.03;;;38.17;;
5125;SDS011;63008;53.112;8.896;2024-03-22T03:44:21;56.30;;;34.20;;
5125;SDS011;63008;53.112;8.896;2024-03-22T03:46:22;59.13;;;36.47;;
5125;SDS011;63008;53.112;8.896;2024-03-22T03:48:23;63.00;;;37.60;;
5125;SDS011;63008;53.112;8.896;2024-03-22T03:50:24;60.60;;;37.10;;
5125;SDS011;63008;53.112;8.896;2024-03-22T03:52:25;72.40;;;39.47;;
5125;SDS011;63008;53.112;8.896;2024-03-22T03:54:26;58.97;;;39.63;;
5125;SDS011;63008;53.112;8.896;2024-03-22T03:56:27;58.83;;;35.97;;
5125;SDS011;63008;53.112;8.896;2024-03-22T03:58:28;62.57;;;36.80;;
5125;SDS011;63008;53.112;8.896;2024-03-22T04:00:29;60.83;;;35.93;;
5125;SDS011;63008;53.112;8.896;2024-03-22T04:02:30;62.73;;;36.73;;
5125;SDS011;63008;53.112;8.896;2024-03-22T04:04:31;60.00;;;37.23;;
5125;SDS011;63008;53.112;8.896;2024-03-22T04:06:33;61.80;;;37.93;;
5125;SDS011;63008;53.112;8.896;2024-03-22T04:08:34;55.60;;;36.80;;
5125;SDS011;63008;53.112;8.896;2024-03-22T04:10:35;62.53;;;36.87;;
5125;SDS011;63008;53.112;8.896;2024-03-22T04:12:36;58.57;;;38.27;;
5125;SDS011;63008;53.112;8.896;2024-03-22T04:14:37;62.53;;;37.80;;
5125;SDS011;63008;53.112;8.896;2024-03-22T04:16:38;62.87;;;38.43;;
5125;SDS011;63008;53.112;8.896;2024-03-22T04:18:40;63.60;;;38.07;;
5125;SDS011;63008;53.112;8.896;2024-03-22T04:20:41;66.10;;;38.30;;
5125;SDS011;63008;53.112;8.896;2024-03-22T04:22:42;61.90;;;36.73;;
5125;SDS011;63008;53.112;8.896;2024-03-22T04:24:43;74.43;;;40.90;;
5125;SDS011;63008;53.112;8.896;2024-03-22T04:26:44;55.77;;;35.83;;
5125;SDS011;63008;53.112;8.896;2024-03-22T04:28:45;65.37;;;37.93;;
5125;SDS011;63008;53.112;8.896;2024-03-22T04:30:58;59.90;;;36.47;;
5125;SDS011;63008;53.112;8.896;2024-03-22T04:33:08;65.90;;;38.30;;
5125;SDS011;63008;53.112;8.896;2024-03-22T04:35:09;61.70;;;39.00;;
5125;SDS011;63008;53.112;8.896;2024-03-22T04:37:10;60.63;;;38.10;;
5125;SDS011;63008;53.112;8.896;2024-03-22T04:39:14;61.37;;;39.97;;
5125;SDS011;63008;53.112;8.896;2024-03-22T04:41:17;59.73;;;37.47;;
5125;SDS011;63008;53.112;8.896;2024-03-22T04:43:18;60.50;;;37.83;;
5125;SDS011;63008;53.112;8.896;2024-03-22T04:45:19;63.93;;;40.60;;
5125;SDS011;63008;53.112;8.896;2024-03-22T04:47:20;61.70;;;38.53;;
5125;SDS011;63008;53.112;8.896;2024-03-22T04:49:21;65.77;;;41.63;;
5125;SDS011;63008;53.112;8.896;2024-03-22T04:51:22;64.57;;;37.60;;
5125;SDS011;63008;53.112;8.896;2024-03-22T04:53:23;59.80;;;39.27;;
5125;SDS011;63008;53.112;8.896;2024-03-22T04:55:24;63.20;;;38.50;;
5125;SDS011;63008;53.112;8.896;2024-03-22T04:57:25;59.90;;;38.70;;
5125;SDS011;63008;53.112;8.896;2024-03-22T04:59:26;66.50;;;40.20;;
5125;SDS011;63008;53.112;8.896;2024-03-22T05:01:27;63.87;;;37.97;;
5125;SDS011;63008;53.112;8.896;2024-03-22T05:03:28;58.40;;;35.90;;
5125;SDS011;63008;53.112;8.896;2024-03-22T05:05:29;65.37;;;37.87;;
5125;SDS011;63008;53.112;8.896;2024-03-22T05:07:30;60.50;;;35.70;;
5125;SDS011;63008;53.112;8.896;2024-03-22T05:09:31;68.30;;;38.83;;
5125;SDS011;63008;53.112;8.896;2024-03-22T05:11:32;66.07;;;40.23;;
5125;SDS011;63008;53.112;8.896;2024-03-22T05:13:33;64.33;;;40.67;;
5125;SDS011;63008;53.112;8.896;2024-03-22T05:15:34;70.17;;;42.80;;
5125;SDS011;63008;53.112;8.896;2024-03-22T05:17:35;63.83;;;40.17;;
5125;SDS011;63008;53.112;8.896;2024-03-22T05:19:36;63.47;;;38.80;;
5125;SDS011;63008;53.112;8.896;2024-03-22T05:21:37;62.80;;;38.07;;
5125;SDS011;63008;53.112;8.896;2024-03-22T05:23:39;62.47;;;40.20;;
5125;SDS011;63008;53.112;8.896;2024-03-22T05:25:40;65.70;;;40.27;;
5125;SDS011;63008;53.112;8.896;2024-03-22T05:27:41;64.33;;;38.87;;
5125;SDS011;63008;53.112;8.896;2024-03-22T05:29:42;58.53;;;37.60;;
5125;SDS011;63008;53.112;8.896;2024-03-22T05:31:48;70.47;;;39.23;;
5125;SDS011;63008;53.112;8.896;2024-03-22T05:33:51;62.23;;;39.67;;
5125;SDS011;63008;53.112;8.896;2024-03-22T05:35:52;69.83;;;41.30;;
5125;SDS011;63008;53.112;8.896;2024-03-22T05:37:53;72.27;;;42.23;;
5125;SDS011;63008;53.112;8.896;2024-03-22T05:39:54;64.97;;;40.57;;
5125;SDS011;63008;53.112;8.896;2024-03-22T05:41:55;64.73;;;39.90;;
5125;SDS011;63008;53.112;8.896;2024-03-22T05:43:56;65.53;;;40.17;;
5125;SDS011;63008;53.112;8.896;2024-03-22T05:45:57;67.00;;;38.57;;
5125;SDS011;63008;53.112;8.896;2024-03-22T05:47:58;68.33;;;41.00;;
5125;SDS011;63008;53.112;8.896;2024-03-22T05:49:59;75.23;;;40.37;;
5125;SDS011;63008;53.112;8.896;2024-03-22T05:52:03;64.80;;;38.80;;
5125;SDS011;63008;53.112;8.896;2024-03-22T05:54:04;72.63;;;40.73;;
5125;SDS011;63008;53.112;8.896;2024-03-22T05:56:05;65.87;;;41.17;;
5125;SDS011;63008;53.112;8.896;2024-03-22T05:58:07;68.13;;;41.67;;
5125;SDS011;63008;53.112;8.896;2024-03-22T06:00:08;65.03;;;40.77;;
5125;SDS011;63008;53.112;8.896;2024-03-22T06:02:09;64.87;;;37.00;;
5125;SDS011;63008;53.112;8.896;2024-03-22T06:04:10;65.70;;;38.10;;
5125;SDS011;63008;53.112;8.896;2024-03-22T06:06:11;68.70;;;39.90;;
5125;SDS011;63008;53.112;8.896;2024-03-22T06:08:12;65.00;;;39.87;;
5125;SDS011;63008;53.112;8.896;2024-03-22T06:10:13;67.93;;;41.77;;
5125;SDS011;63008;53.112;8.896;2024-03-22T06:12:15;64.77;;;39.60;;
5125;SDS011;63008;53.112;8.896;2024-03-22T06:14:17;65.13;;;39.00;;
5125;SDS011;63008;53.112;8.896;2024-03-22T06:16:18;66.73;;;40.80;;
5125;SDS011;63008;53.112;8.896;2024-03-22T06:18:19;70.07;;;40.23;;
5125;SDS011;63008;53.112;8.896;2024-03-22T06:20:20;69.53;;;39.70;;
5125;SDS011;63008;53.112;8.896;2024-03-22T06:22:21;77.07;;;43.00;;
5125;SDS011;63008;53.112;8.896;2024-03-22T06:24:22;69.80;;;41.77;;
5125;SDS011;63008;53.112;8.896;2024-03-22T06:26:23;66.33;;;41.10;;
5125;SDS011;63008;53.112;8.896;2024-03-22T06:28:25;69.80;;;40.83;;
5125;SDS011;63008;53.112;8.896;2024-03-22T06:30:28;68.47;;;40.63;;
5125;SDS011;63008;53.112;8.896;2024-03-22T06:32:29;67.20;;;39.93;;
5125;SDS011;63008;53.112;8.896;2024-03-22T06:34:30;70.63;;;41.50;;
5125;SDS011;63008;53.112;8.896;2024-03-22T06:36:31;63.80;;;39.47;;
5125;SDS011;63008;53.112;8.896;2024-03-22T06:38:33;66.93;;;39.97;;
5125;SDS011;63008;53.112;8.896;2024-03-22T06:40:34;64.70;;;40.00;;
5125;SDS011;63008;53.112;8.896;2024-03-22T06:42:35;63.30;;;38.27;;
5125;SDS011;63008;53.112;8.896;2024-03-22T06:44:36;70.63;;;41.70;;
5125;SDS011;63008;53.112;8.896;2024-03-22T06:46:37;71.10;;;40.80;;
5125;SDS011;63008;53.112;8.896;2024-03-22T06:48:38;72.50;;;41.83;;
5125;SDS011;63008;53.112;8.896;2024-03-22T06:50:39;76.60;;;42.97;;
5125;SDS011;63008;53.112;8.896;2024-03-22T06:52:40;76.33;;;42.67;;
5125;SDS011;63008;53.112;8.896;2024-03-22T06:54:41;79.20;;;40.97;;
5125;SDS011;63008;53.112;8.896;2024-03-22T06:56:42;68.17;;;41.27;;
5125;SDS011;63008;53.112;8.896;2024-03-22T06:58:44;70.63;;;40.47;;
5125;SDS011;63008;53.112;8.896;2024-03-22T07:00:45;74.10;;;39.63;;
5125;SDS011;63008;53.112;8.896;2024-03-22T07:02:46;76.00;;;41.83;;
5125;SDS011;63008;53.112;8.896;2024-03-22T07:04:47;73.47;;;41.70;;
5125;SDS011;63008;53.112;8.896;2024-03-22T07:06:50;80.27;;;42.07;;
5125;SDS011;63008;53.112;8.896;2024-03-22T07:08:51;79.07;;;43.67;;
5125;SDS011;63008;53.112;8.896;2024-03-22T07:10:52;82.13;;;43.20;;
5125;SDS011;63008;53.112;8.896;2024-03-22T07:12:55;78.13;;;43.73;;
5125;SDS011;63008;53.112;8.896;2024-03-22T07:14:56;80.03;;;41.33;;
5125;SDS011;63008;53.112;8.896;2024-03-22T07:16:58;74.80;;;43.37;;
5125;SDS011;63008;53.112;8.896;2024-03-22T07:18:59;80.00;;;45.00;;
5125;SDS011;63008;53.112;8.896;2024-03-22T07:21:00;91.70;;;45.77;;
5125;SDS011;63008;53.112;8.896;2024-03-22T07:23:02;91.47;;;45.90;;
5125;SDS011;63008;53.112;8.896;2024-03-22T07:25:05;92.70;;;45.60;;
5125;SDS011;63008;53.112;8.896;2024-03-22T07:27:06;91.13;;;44.77;;
5125;SDS011;63008;53.112;8.896;2024-03-22T07:29:07;100.10;;;49.73;;
5125;SDS011;63008;53.112;8.896;2024-03-22T07:31:08;101.73;;;49.87;;
5125;SDS011;63008;53.112;8.896;2024-03-22T07:33:10;113.13;;;49.47;;
5125;SDS011;63008;53.112;8.896;2024-03-22T07:35:14;106.33;;;48.03;;
5125;SDS011;63008;53.112;8.896;2024-03-22T07:37:15;108.73;;;51.80;;
5125;SDS011;63008;53.112;8.896;2024-03-22T07:39:16;111.93;;;48.43;;
5125;SDS011;63008;53.112;8.896;2024-03-22T07:41:17;110.70;;;51.27;;
5125;SDS011;63008;53.112;8.896;2024-03-22T07:43:17;118.73;;;53.60;;
5125;SDS011;63008;53.112;8.896;2024-03-22T07:45:19;113.70;;;53.03;;
5125;SDS011;63008;53.112;8.896;2024-03-22T07:47:20;113.57;;;53.60;;
5125;SDS011;63008;53.112;8.896;2024-03-22T07:49:20;127.67;;;53.50;;
5125;SDS011;63008;53.112;8.896;2024-03-22T07:51:22;119.47;;;51.97;;
5125;SDS011;63008;53.112;8.896;2024-03-22T07:53:23;117.93;;;51.93;;
5125;SDS011;63008;53.112;8.896;2024-03-22T07:55:24;122.10;;;53.50;;
5125;SDS011;63008;53.112;8.896;2024-03-22T07:57:25;115.57;;;53.07;;
5125;SDS011;63008;53.112;8.896;2024-03-22T07:59:26;115.10;;;52.47;;
5125;SDS011;63008;53.112;8.896;2024-03-22T08:01:27;108.87;;;50.27;;
5125;SDS011;63008;53.112;8.896;2024-03-22T08:03:28;113.57;;;51.10;;
5125;SDS011;63008;53.112;8.896;2024-03-22T08:05:29;129.33;;;55.80;;
5125;SDS011;63008;53.112;8.896;2024-03-22T08:07:30;119.17;;;53.67;;
5125;SDS011;63008;53.112;8.896;2024-03-22T08:09:31;126.67;;;52.27;;
5125;SDS011;63008;53.112;8.896;2024-03-22T08:11:34;131.83;;;52.37;;
5125;SDS011;63008;53.112;8.896;2024-03-22T08:13:35;124.90;;;54.03;;
5125;SDS011;63008;53.112;8.896;2024-03-22T08:15:36;130.90;;;54.67;;
5125;SDS011;63008;53.112;8.896;2024-03-22T08:17:37;133.53;;;58.33;;
5125;SDS011;63008;53.112;8.896;2024-03-22T08:19:38;126.17;;;52.27;;
5125;SDS011;63008;53.112;8.896;2024-03-22T08:21:39;134.20;;;55.03;;
5125;SDS011;63008;53.112;8.896;2024-03-22T08:23:40;135.50;;;55.80;;
5125;SDS011;63008;53.112;8.896;2024-03-22T08:25:41;125.03;;;55.73;;
5125;SDS011;63008;53.112;8.896;2024-03-22T08:27:43;124.93;;;55.63;;
5125;SDS011;63008;53.112;8.896;2024-03-22T08:29:46;125.10;;;54.13;;
5125;SDS011;63008;53.112;8.896;2024-03-22T08:31:47;129.53;;;52.83;;
5125;SDS011;63008;53.112;8.896;2024-03-22T08:33:48;128.27;;;54.87;;
5125;SDS011;63008;53.112;8.896;2024-03-22T08:35:49;117.03;;;53.10;;
5125;SDS011;63008;53.112;8.896;2024-03-22T08:37:50;114.03;;;54.23;;
5125;SDS011;63008;53.112;8.896;2024-03-22T08:39:51;109.47;;;50.90;;
5125;SDS011;63008;53.112;8.896;2024-03-22T08:41:52;113.20;;;50.07;;
5125;SDS011;63008;53.112;8.896;2024-03-22T08:43:53;95.03;;;49.70;;
5125;SDS011;63008;53.112;8.896;2024-03-22T08:45:54;99.30;;;48.87;;
5125;SDS011;63008;53.112;8.896;2024-03-22T08:47:56;108.23;;;47.20;;
5125;SDS011;63008;53.112;8.896;2024-03-22T08:49:57;92.43;;;45.97;;
5125;SDS011;63008;53.112;8.896;2024-03-22T08:51:58;85.73;;;41.50;;
5125;SDS011;63008;53.112;8.896;2024-03-22T08:53:59;93.67;;;46.33;;
5125;SDS011;63008;53.112;8.896;2024-03-22T08:56:01;80.30;;;39.47;;
5125;SDS011;63008;53.112;8.896;2024-03-22T08:58:03;75.00;;;41.87;;
5125;SDS011;63008;53.112;8.896;2024-03-22T09:00:04;77.33;;;44.53;;
5125;SDS011;63008;53.112;8.896;2024-03-22T09:02:08;80.57;;;44.03;;
5125;SDS011;63008;53.112;8.896;2024-03-22T09:04:09;82.53;;;43.50;;
5125;SDS011;63008;53.112;8.896;2024-03-22T09:06:10;82.13;;;43.50;;
5125;SDS011;63008;53.112;8.896;2024-03-22T09:08:11;71.60;;;43.00;;
5125;SDS011;63008;53.112;8.896;2024-03-22T09:10:12;72.20;;;41.03;;
5125;SDS011;63008;53.112;8.896;2024-03-22T09:12:13;69.67;;;39.07;;
5125;SDS011;63008;53.112;8.896;2024-03-22T09:14:14;74.50;;;40.17;;
5125;SDS011;63008;53.112;8.896;2024-03-22T09:16:15;69.10;;;38.70;;
5125;SDS011;63008;53.112;8.896;2024-03-22T09:18:16;74.57;;;40.43;;
5125;SDS011;63008;53.112;8.896;2024-03-22T09:20:17;80.93;;;40.13;;
5125;SDS011;63008;53.112;8.896;2024-03-22T09:22:18;68.07;;;37.97;;
5125;SDS011;63008;53.112;8.896;2024-03-22T09:24:19;71.43;;;37.90;;
5125;SDS011;63008;53.112;8.896;2024-03-22T09:26:20;70.50;;;40.67;;
5125;SDS011;63008;53.112;8.896;2024-03-22T09:28:21;73.17;;;40.50;;
5125;SDS011;63008;53.112;8.896;2024-03-22T09:30:22;76.33;;;40.60;;
5125;SDS011;63008;53.112;8.896;2024-03-22T09:32:23;71.63;;;42.63;;
5125;SDS011;63008;53.112;8.896;2024-03-22T09:34:24;82.53;;;42.90;;
5125;SDS011;63008;53.112;8.896;2024-03-22T09:36:25;77.30;;;42.30;;
5125;SDS011;63008;53.112;8.896;2024-03-22T09:38:26;69.30;;;40.40;;
5125;SDS011;63008;53.112;8.896;2024-03-22T09:40:30;82.93;;;42.93;;
5125;SDS011;63008;53.112;8.896;2024-03-22T09:42:31;74.70;;;42.80;;
5125;SDS011;63008;53.112;8.896;2024-03-22T09:44:33;70.33;;;41.40;;
5125;SDS011;63008;53.112;8.896;2024-03-22T09:46:34;70.90;;;38.43;;
5125;SDS011;63008;53.112;8.896;2024-03-22T09:48:36;65.33;;;37.20;;
5125;SDS011;63008;53.112;8.896;2024-03-22T09:50:38;64.27;;;38.23;;
5125;SDS011;63008;53.112;8.896;2024-03-22T09:52:39;61.43;;;36.77;;
5125;SDS011;63008;53.112;8.896;2024-03-22T09:54:42;60.33;;;35.53;;
5125;SDS011;63008;53.112;8.896;2024-03-22T09:56:43;64.80;;;35.93;;
5125;SDS011;63008;53.112;8.896;2024-03-22T09:58:48;52.60;;;31.50;;
5125;SDS011;63008;53.112;8.896;2024-03-22T10:00:49;54.37;;;35.10;;
5125;SDS011;63008;53.112;8.896;2024-03-22T10:02:50;49.70;;;30.00;;
5125;SDS011;63008;53.112;8.896;2024-03-22T10:04:51;57.47;;;32.73;;
5125;SDS011;63008;53.112;8.896;2024-03-22T10:06:52;55.17;;;32.00;;
5125;SDS011;63008;53.112;8.896;2024-03-22T10:08:54;62.37;;;32.10;;
5125;SDS011;63008;53.112;8.896;2024-03-22T10:10:55;52.10;;;29.77;;
5125;SDS011;63008;53.112;8.896;2024-03-22T10:12:56;45.90;;;28.03;;
5125;SDS011;63008;53.112;8.896;2024-03-22T10:14:57;44.07;;;27.23;;
5125;SDS011;63008;53.112;8.896;2024-03-22T10:16:58;35.40;;;23.20;;
5125;SDS011;63008;53.112;8.896;2024-03-22T10:18:59;42.30;;;26.97;;
5125;SDS011;63008;53.112;8.896;2024-03-22T10:21:03;36.80;;;24.20;;
5125;SDS011;63008;53.112;8.896;2024-03-22T10:23:07;39.83;;;24.03;;
5125;SDS011;63008;53.112;8.896;2024-03-22T10:25:09;37.33;;;24.50;;
5125;SDS011;63008;53.112;8.896;2024-03-22T10:27:10;40.50;;;26.57;;
5125;SDS011;63008;53.112;8.896;2024-03-22T10:29:11;46.23;;;27.47;;
5125;SDS011;63008;53.112;8.896;2024-03-22T10:31:13;44.27;;;28.50;;
5125;SDS011;63008;53.112;8.896;2024-03-22T10:33:14;56.40;;;29.30;;
5125;SDS011;63008;53.112;8.896;2024-03-22T10:35:17;56.30;;;31.50;;
5125;SDS011;63008;53.112;8.896;2024-03-22T10:37:18;46.20;;;29.63;;
5125;SDS011;63008;53.112;8.896;2024-03-22T10:39:21;50.17;;;30.60;;
5125;SDS011;63008;53.112;8.896;2024-03-22T10:41:23;39.90;;;25.40;;
5125;SDS011;63008;53.112;8.896;2024-03-22T10:43:25;47.70;;;28.07;;
5125;SDS011;63008;53.112;8.896;2024-03-22T10:45:26;42.73;;;25.67;;
5125;SDS011;63008;53.112;8.896;2024-03-22T10:47:29;43.67;;;25.10;;
5125;SDS011;63008;53.112;8.896;2024-03-22T10:49:31;45.33;;;26.13;;
5125;SDS011;63008;53.112;8.896;2024-03-22T10:51:37;38.10;;;23.83;;
5125;SDS011;63008;53.112;8.896;2024-03-22T10:53:39;38.20;;;22.07;;
5125;SDS011;63008;53.112;8.896;2024-03-22T10:55:44;31.37;;;20.83;;
5125;SDS011;63008;53.112;8.896;2024-03-22T10:57:48;33.50;;;19.20;;
5125;SDS011;63008;53.112;8.896;2024-03-22T10:59:49;29.57;;;18.90;;
5125;SDS011;63008;53.112;8.896;2024-03-22T11:02:02;25.60;;;18.60;;
5125;SDS011;63008;53.112;8.896;2024-03-22T11:04:04;33.73;;;19.23;;
5125;SDS011;63008;53.112;8.896;2024-03-22T11:06:07;27.43;;;17.90;;
5125;SDS011;63008;53.112;8.896;2024-03-22T11:08:08;29.50;;;19.50;;
5125;SDS011;63008;53.112;8.896;2024-03-22T11:10:11;31.37;;;20.10;;
5125;SDS011;63008;53.112;8.896;2024-03-22T11:12:12;27.10;;;17.77;;
5125;SDS011;63008;53.112;8.896;2024-03-22T11:14:13;23.90;;;17.07;;
5125;SDS011;63008;53.112;8.896;2024-03-22T11:16:15;31.80;;;19.27;;
5125;SDS011;63008;53.112;8.896;2024-03-22T11:18:16;28.30;;;18.77;;
5125;SDS011;63008;53.112;8.896;2024-03-22T11:20:17;25.23;;;18.40;;
5125;SDS011;63008;53.112;8.896;2024-03-22T11:22:18;24.57;;;16.77;;
5125;SDS011;63008;53.112;8.896;2024-03-22T11:24:20;28.80;;;18.00;;
5125;SDS011;63008;53.112;8.896;2024-03-22T11:26:21;26.43;;;16.03;;
5125;SDS011;63008;53.112;8.896;2024-03-22T11:28:22;25.37;;;16.53;;
5125;SDS011;63008;53.112;8.896;2024-03-22T11:30:26;27.97;;;15.80;;
5125;SDS011;63008;53.112;8.896;2024-03-22T11:32:30;22.03;;;16.20;;
5125;SDS011;63008;53.112;8.896;2024-03-22T11:34:31;23.13;;;16.50;;
5125;SDS011;63008;53.112;8.896;2024-03-22T11:36:32;25.50;;;15.70;;
5125;SDS011;63008;53.112;8.896;2024-03-22T11:38:33;22.13;;;16.40;;
5125;SDS011;63008;53.112;8.896;2024-03-22T11:40:34;23.37;;;16.70;;
5125;SDS011;63008;53.112;8.896;2024-03-22T11:42:39;24.40;;;17.50;;
5125;SDS011;63008;53.112;8.896;2024-03-22T11:44:41;26.43;;;17.00;;
5125;SDS011;63008;53.112;8.896;2024-03-22T11:46:43;16.17;;;12.97;;
5125;SDS011;63008;53.112;8.896;2024-03-22T11:48:44;22.37;;;16.37;;
5125;SDS011;63008;53.112;8.896;2024-03-22T11:50:45;21.13;;;15.80;;
5125;SDS011;63008;53.112;8.896;2024-03-22T11:52:46;24.87;;;17.20;;
5125;SDS011;63008;53.112;8.896;2024-03-22T11:54:51;21.60;;;16.10;;
5125;SDS011;63008;53.112;8.896;2024-03-22T11:56:56;32.10;;;17.27;;
5125;SDS011;63008;53.112;8.896;2024-03-22T11:58:58;25.30;;;17.20;;
5125;SDS011;63008;53.112;8.896;2024-03-22T12:00:59;21.50;;;15.90;;